sensor_id;sensor_type;location;lat;lon;timestamp;pressure;altitude;pressure_sealevel;temperature;humidity
5146;BME280;2591;48.144;15.152;2023-03-16T00:00:47;77295.59;;;-144.65;100.00
5146;BME280;2591;48.144;15.152;2023-03-16T00:03:15;77309.88;;;-144.65;100.00
5146;BME280;2591;48.144;15.152;2023-03-16T00:05:46;77315.97;;;-144.65;100.00
5146;BME280;2591;48.144;15.152;2023-03-16T00:08:15;77328.22;;;-144.65;100.00
5146;BME280;2591;48.144;15.152;2023-03-16T00:10:44;77334.34;;;-144.65;100.00
5146;BME280;2591;48.144;15.152;2023-03-16T00:13:12;77350.66;;;-144.65;100.00
5146;BME280;2591;48.144;15.152;2023-03-16T00:15:48;77362.88;;;-144.65;100.00
5146;BME280;2591;48.144;15.152;2023-03-16T00:18:17;77362.88;;;-144.65;100.00
5146;BME280;2591;48.144;15.152;2023-03-16T00:20:50;77375.13;;;-144.65;100.00
5146;BME280;2591;48.144;15.152;2023-03-16T00:23:18;77383.28;;;-144.65;100.00
5146;BME280;2591;48.144;15.152;2023-03-16T00:25:53;77387.38;;;-144.65;100.00
5146;BME280;2591;48.144;15.152;2023-03-16T00:28:21;77391.44;;;-144.65;100.00
5146;BME280;2591;48.144;15.152;2023-03-16T00:30:49;77383.28;;;-144.65;100.00
5146;BME280;2591;48.144;15.152;2023-03-16T00:33:17;77391.44;;;-144.65;100.00
5146;BME280;2591;48.144;15.152;2023-03-16T00:35:46;77391.44;;;-144.65;100.00
5146;BME280;2591;48.144;15.152;2023-03-16T00:38:18;77395.53;;;-144.65;100.00
5146;BME280;2591;48.144;15.152;2023-03-16T00:40:47;77399.59;;;-144.65;100.00
5146;BME280;2591;48.144;15.152;2023-03-16T00:43:16;77403.69;;;-144.65;100.00
5146;BME280;2591;48.144;15.152;2023-03-16T00:45:44;77411.84;;;-144.65;100.00
5146;BME280;2591;48.144;15.152;2023-03-16T00:48:12;77411.84;;;-144.65;100.00
5146;BME280;2591;48.144;15.152;2023-03-16T00:50:40;77420.00;;;-144.65;100.00
5146;BME280;2591;48.144;15.152;2023-03-16T00:53:08;77426.13;;;-144.65;100.00
5146;BME280;2591;48.144;15.152;2023-03-16T00:55:37;77428.16;;;-144.65;100.00
5146;BME280;2591;48.144;15.152;2023-03-16T00:58:05;77432.25;;;-144.65;100.00
5146;BME280;2591;48.144;15.152;2023-03-16T01:00:33;77432.25;;;-144.65;100.00
5146;BME280;2591;48.144;15.152;2023-03-16T01:03:01;77440.41;;;-144.65;100.00
5146;BME280;2591;48.144;15.152;2023-03-16T01:05:29;77444.47;;;-144.65;100.00
5146;BME280;2591;48.144;15.152;2023-03-16T01:07:59;77464.88;;;-144.65;100.00
5146;BME280;2591;48.144;15.152;2023-03-16T01:10:28;77468.94;;;-144.65;100.00
5146;BME280;2591;48.144;15.152;2023-03-16T01:12:57;77477.09;;;-144.65;100.00
5146;BME280;2591;48.144;15.152;2023-03-16T01:15:25;77487.31;;;-144.65;100.00
5146;BME280;2591;48.144;15.152;2023-03-16T01:17:53;77491.38;;;-144.65;100.00
5146;BME280;2591;48.144;15.152;2023-03-16T01:20:21;77491.38;;;-144.65;100.00
5146;BME280;2591;48.144;15.152;2023-03-16T01:22:49;77491.38;;;-144.65;100.00
5146;BME280;2591;48.144;15.152;2023-03-16T01:25:17;77499.53;;;-144.65;100.00
5146;BME280;2591;48.144;15.152;2023-03-16T01:27:46;77505.66;;;-144.65;100.00
5146;BME280;2591;48.144;15.152;2023-03-16T01:30:15;77501.59;;;-144.65;100.00
5146;BME280;2591;48.144;15.152;2023-03-16T01:32:43;77515.84;;;-144.65;100.00
5146;BME280;2591;48.144;15.152;2023-03-16T01:35:11;77507.69;;;-144.65;100.00
5146;BME280;2591;48.144;15.152;2023-03-16T01:37:39;77517.91;;;-144.65;100.00
5146;BME280;2591;48.144;15.152;2023-03-16T01:40:09;77524.03;;;-144.65;100.00
5146;BME280;2591;48.144;15.152;2023-03-16T01:42:44;77538.28;;;-144.65;100.00
5146;BME280;2591;48.144;15.152;2023-03-16T01:48:21;77546.47;;;-144.65;100.00
5146;BME280;2591;48.144;15.152;2023-03-16T01:50:50;77554.63;;;-144.65;100.00
5146;BME280;2591;48.144;15.152;2023-03-16T01:53:20;77570.94;;;-144.65;100.00
5146;BME280;2591;48.144;15.152;2023-03-16T01:55:49;77583.16;;;-144.65;100.00
5146;BME280;2591;48.144;15.152;2023-03-16T01:58:21;77579.09;;;-144.65;100.00
5146;BME280;2591;48.144;15.152;2023-03-16T02:00:49;77570.94;;;-144.65;100.00
5146;BME280;2591;48.144;15.152;2023-03-16T02:03:18;77570.94;;;-144.65;100.00
5146;BME280;2591;48.144;15.152;2023-03-16T02:05:51;77575.00;;;-144.65;100.00
5146;BME280;2591;48.144;15.152;2023-03-16T02:08:21;77568.91;;;-144.65;100.00
5146;BME280;2591;48.144;15.152;2023-03-16T02:10:51;77562.78;;;-144.65;100.00
5146;BME280;2591;48.144;15.152;2023-03-16T02:13:21;77566.84;;;-144.65;100.00
5146;BME280;2591;48.144;15.152;2023-03-16T02:15:50;77562.78;;;-144.65;100.00
5146;BME280;2591;48.144;15.152;2023-03-16T02:18:19;77575.00;;;-144.65;100.00
5146;BME280;2591;48.144;15.152;2023-03-16T02:20:55;77566.84;;;-144.65;100.00
5146;BME280;2591;48.144;15.152;2023-03-16T02:23:24;77581.13;;;-144.65;100.00
5146;BME280;2591;48.144;15.152;2023-03-16T02:25:57;77579.09;;;-144.65;100.00
5146;BME280;2591;48.144;15.152;2023-03-16T02:28:32;77581.13;;;-144.65;100.00
5146;BME280;2591;48.144;15.152;2023-03-16T02:31:04;77581.13;;;-144.65;100.00
5146;BME280;2591;48.144;15.152;2023-03-16T02:33:33;77583.16;;;-144.65;100.00
5146;BME280;2591;48.144;15.152;2023-03-16T02:36:02;77579.09;;;-144.65;100.00
5146;BME280;2591;48.144;15.152;2023-03-16T02:38:29;77601.53;;;-144.65;100.00
5146;BME280;2591;48.144;15.152;2023-03-16T02:41:00;77603.56;;;-144.65;100.00
5146;BME280;2591;48.144;15.152;2023-03-16T02:43:33;77603.56;;;-144.65;100.00
5146;BME280;2591;48.144;15.152;2023-03-16T02:46:05;77615.81;;;-144.65;100.00
5146;BME280;2591;48.144;15.152;2023-03-16T02:48:37;77623.97;;;-144.65;100.00
5146;BME280;2591;48.144;15.152;2023-03-16T02:51:09;77632.13;;;-144.65;100.00
5146;BME280;2591;48.144;15.152;2023-03-16T02:53:36;77632.13;;;-144.65;100.00
5146;BME280;2591;48.144;15.152;2023-03-16T02:56:05;77636.19;;;-144.65;100.00
5146;BME280;2591;48.144;15.152;2023-03-16T02:58:33;77638.25;;;-144.65;100.00
5146;BME280;2591;48.144;15.152;2023-03-16T03:01:00;77636.19;;;-144.65;100.00
5146;BME280;2591;48.144;15.152;2023-03-16T03:03:30;77640.28;;;-144.65;100.00
5146;BME280;2591;48.144;15.152;2023-03-16T03:06:00;77638.25;;;-144.65;100.00
5146;BME280;2591;48.144;15.152;2023-03-16T03:08:28;77642.31;;;-144.65;100.00
5146;BME280;2591;48.144;15.152;2023-03-16T03:10:58;77634.16;;;-144.65;100.00
5146;BME280;2591;48.144;15.152;2023-03-16T03:13:26;77638.25;;;-144.65;100.00
5146;BME280;2591;48.144;15.152;2023-03-16T03:15:54;77640.28;;;-144.65;100.00
5146;BME280;2591;48.144;15.152;2023-03-16T03:18:22;77640.28;;;-144.65;100.00
5146;BME280;2591;48.144;15.152;2023-03-16T03:20:52;77646.41;;;-144.65;100.00
5146;BME280;2591;48.144;15.152;2023-03-16T03:23:20;77648.44;;;-144.65;100.00
5146;BME280;2591;48.144;15.152;2023-03-16T03:25:48;77648.44;;;-144.65;100.00
5146;BME280;2591;48.144;15.152;2023-03-16T03:28:15;77648.44;;;-144.65;100.00
5146;BME280;2591;48.144;15.152;2023-03-16T03:30:43;77660.69;;;-144.65;100.00
5146;BME280;2591;48.144;15.152;2023-03-16T03:33:11;77666.78;;;-144.65;100.00
5146;BME280;2591;48.144;15.152;2023-03-16T03:35:39;77668.84;;;-144.65;100.00
5146;BME280;2591;48.144;15.152;2023-03-16T03:38:09;77666.78;;;-144.65;100.00
5146;BME280;2591;48.144;15.152;2023-03-16T03:40:37;77664.75;;;-144.65;100.00
5146;BME280;2591;48.144;15.152;2023-03-16T03:43:05;77668.84;;;-144.65;100.00
5146;BME280;2591;48.144;15.152;2023-03-16T03:45:33;77668.84;;;-144.65;100.00
5146;BME280;2591;48.144;15.152;2023-03-16T03:48:01;77664.75;;;-144.65;100.00
5146;BME280;2591;48.144;15.152;2023-03-16T03:50:28;77670.88;;;-144.65;100.00
5146;BME280;2591;48.144;15.152;2023-03-16T03:52:56;77677.00;;;-144.65;100.00
5146;BME280;2591;48.144;15.152;2023-03-16T03:55:25;77683.13;;;-144.65;100.00
5146;BME280;2591;48.144;15.152;2023-03-16T03:57:53;77689.25;;;-144.65;100.00
5146;BME280;2591;48.144;15.152;2023-03-16T04:00:21;77709.63;;;-144.65;100.00
5146;BME280;2591;48.144;15.152;2023-03-16T04:02:49;77717.78;;;-144.65;100.00
5146;BME280;2591;48.144;15.152;2023-03-16T04:05:17;77719.84;;;-144.65;100.00
5146;BME280;2591;48.144;15.152;2023-03-16T04:07:45;77721.88;;;-144.65;100.00
5146;BME280;2591;48.144;15.152;2023-03-16T04:10:13;77728.00;;;-144.65;100.00
5146;BME280;2591;48.144;15.152;2023-03-16T04:12:42;77734.09;;;-144.65;100.00
5146;BME280;2591;48.144;15.152;2023-03-16T04:15:10;77742.28;;;-144.65;100.00
5146;BME280;2591;48.144;15.152;2023-03-16T04:17:39;77744.31;;;-144.65;100.00
5146;BME280;2591;48.144;15.152;2023-03-16T04:20:08;77752.47;;;-144.65;100.00
5146;BME280;2591;48.144;15.152;2023-03-16T04:22:39;77766.75;;;-144.65;100.00
5146;BME280;2591;48.144;15.152;2023-03-16T04:25:08;77770.81;;;-144.65;100.00
5146;BME280;2591;48.144;15.152;2023-03-16T04:27:37;77766.75;;;-144.65;100.00
5146;BME280;2591;48.144;15.152;2023-03-16T04:30:08;77762.66;;;-144.65;100.00
5146;BME280;2591;48.144;15.152;2023-03-16T04:32:38;77758.59;;;-144.65;100.00
5146;BME280;2591;48.144;15.152;2023-03-16T04:35:08;77750.44;;;-144.65;100.00
5146;BME280;2591;48.144;15.152;2023-03-16T04:37:36;77752.47;;;-144.65;100.00
5146;BME280;2591;48.144;15.152;2023-03-16T04:40:04;77754.50;;;-144.65;100.00
5146;BME280;2591;48.144;15.152;2023-03-16T04:42:41;77750.44;;;-144.65;100.00
5146;BME280;2591;48.144;15.152;2023-03-16T04:45:11;77752.47;;;-144.65;100.00
5146;BME280;2591;48.144;15.152;2023-03-16T04:47:40;77744.31;;;-144.65;100.00
5146;BME280;2591;48.144;15.152;2023-03-16T04:50:09;77734.09;;;-144.65;100.00
5146;BME280;2591;48.144;15.152;2023-03-16T04:52:37;77738.19;;;-144.65;100.00
5146;BME280;2591;48.144;15.152;2023-03-16T04:55:06;77738.19;;;-144.65;100.00
5146;BME280;2591;48.144;15.152;2023-03-16T04:57:34;77742.28;;;-144.65;100.00
5146;BME280;2591;48.144;15.152;2023-03-16T05:00:03;77738.19;;;-144.65;100.00
5146;BME280;2591;48.144;15.152;2023-03-16T05:02:38;77760.63;;;-144.65;100.00
5146;BME280;2591;48.144;15.152;2023-03-16T05:05:07;77781.03;;;-144.65;100.00
5146;BME280;2591;48.144;15.152;2023-03-16T05:07:35;77797.34;;;-144.65;100.00
5146;BME280;2591;48.144;15.152;2023-03-16T05:10:04;77807.53;;;-144.65;100.00
5146;BME280;2591;48.144;15.152;2023-03-16T05:12:32;77803.47;;;-144.65;100.00
5146;BME280;2591;48.144;15.152;2023-03-16T05:14:59;77811.63;;;-144.65;100.00
5146;BME280;2591;48.144;15.152;2023-03-16T05:17:27;77823.84;;;-144.65;100.00
5146;BME280;2591;48.144;15.152;2023-03-16T05:19:57;77827.94;;;-144.65;100.00
5146;BME280;2591;48.144;15.152;2023-03-16T05:22:25;77840.19;;;-144.65;100.00
5146;BME280;2591;48.144;15.152;2023-03-16T05:24:53;77844.25;;;-144.65;100.00
5146;BME280;2591;48.144;15.152;2023-03-16T05:27:21;77846.28;;;-144.65;100.00
5146;BME280;2591;48.144;15.152;2023-03-16T05:29:48;77844.25;;;-144.65;100.00
5146;BME280;2591;48.144;15.152;2023-03-16T05:32:16;77844.25;;;-144.65;100.00
5146;BME280;2591;48.144;15.152;2023-03-16T05:34:44;77844.25;;;-144.65;100.00
5146;BME280;2591;48.144;15.152;2023-03-16T05:37:13;77842.22;;;-144.65;100.00
5146;BME280;2591;48.144;15.152;2023-03-16T05:39:41;77836.09;;;-144.65;100.00
5146;BME280;2591;48.144;15.152;2023-03-16T05:42:09;77827.94;;;-144.65;100.00
5146;BME280;2591;48.144;15.152;2023-03-16T05:44:37;77827.94;;;-144.65;100.00
5146;BME280;2591;48.144;15.152;2023-03-16T05:47:05;77825.91;;;-144.65;100.00
5146;BME280;2591;48.144;15.152;2023-03-16T05:49:33;77823.84;;;-144.65;100.00
5146;BME280;2591;48.144;15.152;2023-03-16T05:52:01;77819.78;;;-144.65;100.00
5146;BME280;2591;48.144;15.152;2023-03-16T05:54:31;77813.66;;;-144.65;100.00
5146;BME280;2591;48.144;15.152;2023-03-16T05:56:58;77811.63;;;-144.65;100.00
5146;BME280;2591;48.144;15.152;2023-03-16T05:59:26;77795.31;;;-144.65;100.00
5146;BME280;2591;48.144;15.152;2023-03-16T06:01:54;77799.38;;;-144.65;100.00
5146;BME280;2591;48.144;15.152;2023-03-16T06:04:22;77803.47;;;-144.65;100.00
5146;BME280;2591;48.144;15.152;2023-03-16T06:06:50;77811.63;;;-144.65;100.00
5146;BME280;2591;48.144;15.152;2023-03-16T06:09:18;77815.69;;;-144.65;100.00
5146;BME280;2591;48.144;15.152;2023-03-16T06:11:47;77805.50;;;-144.65;100.00
5146;BME280;2591;48.144;15.152;2023-03-16T06:14:15;77803.47;;;-144.65;100.00
5146;BME280;2591;48.144;15.152;2023-03-16T06:16:42;77793.25;;;-144.65;100.00
5146;BME280;2591;48.144;15.152;2023-03-16T06:19:10;77787.16;;;-144.65;100.00
5146;BME280;2591;48.144;15.152;2023-03-16T06:21:38;77781.03;;;-144.65;100.00
5146;BME280;2591;48.144;15.152;2023-03-16T06:24:07;77778.97;;;-144.65;100.00
5146;BME280;2591;48.144;15.152;2023-03-16T06:26:35;77783.06;;;-144.65;100.00
5146;BME280;2591;48.144;15.152;2023-03-16T06:29:05;77772.88;;;-144.65;100.00
5146;BME280;2591;48.144;15.152;2023-03-16T06:31:33;77750.44;;;-144.65;100.00
5146;BME280;2591;48.144;15.152;2023-03-16T06:34:01;77734.09;;;-144.65;100.00
5146;BME280;2591;48.144;15.152;2023-03-16T06:36:28;77717.78;;;-144.65;100.00
5146;BME280;2591;48.144;15.152;2023-03-16T06:38:56;77701.47;;;-144.65;100.00
5146;BME280;2591;48.144;15.152;2023-03-16T06:41:24;77693.31;;;-144.65;100.00
5146;BME280;2591;48.144;15.152;2023-03-16T06:43:52;77679.03;;;-144.65;100.00
5146;BME280;2591;48.144;15.152;2023-03-16T06:46:21;77668.84;;;-144.65;100.00
5146;BME280;2591;48.144;15.152;2023-03-16T06:48:49;77656.59;;;-144.65;100.00
5146;BME280;2591;48.144;15.152;2023-03-16T06:51:17;77640.28;;;-144.65;100.00
5146;BME280;2591;48.144;15.152;2023-03-16T06:53:45;77623.97;;;-144.65;100.00
5146;BME280;2591;48.144;15.152;2023-03-16T06:56:13;77621.94;;;-144.65;100.00
5146;BME280;2591;48.144;15.152;2023-03-16T06:58:41;77628.03;;;-144.65;100.00
5146;BME280;2591;48.144;15.152;2023-03-16T07:01:09;77634.16;;;-144.65;100.00
5146;BME280;2591;48.144;15.152;2023-03-16T07:03:39;77607.66;;;-144.65;100.00
5146;BME280;2591;48.144;15.152;2023-03-16T07:06:07;77595.41;;;-144.65;100.00
5146;BME280;2591;48.144;15.152;2023-03-16T07:08:35;77568.91;;;-144.65;100.00
5146;BME280;2591;48.144;15.152;2023-03-16T07:11:03;77558.69;;;-144.65;100.00
5146;BME280;2591;48.144;15.152;2023-03-16T07:13:31;77554.63;;;-144.65;100.00
5146;BME280;2591;48.144;15.152;2023-03-16T07:16:00;77546.47;;;-144.65;100.00
5146;BME280;2591;48.144;15.152;2023-03-16T07:18:28;77517.91;;;-144.65;100.00
5146;BME280;2591;48.144;15.152;2023-03-16T07:20:58;77521.97;;;-144.65;100.00
5146;BME280;2591;48.144;15.152;2023-03-16T07:23:26;77519.94;;;-144.65;100.00
5146;BME280;2591;48.144;15.152;2023-03-16T07:25:54;77513.81;;;-144.65;100.00
5146;BME280;2591;48.144;15.152;2023-03-16T07:28:22;77509.75;;;-144.65;100.00
5146;BME280;2591;48.144;15.152;2023-03-16T07:30:49;77493.44;;;-144.65;100.00
5146;BME280;2591;48.144;15.152;2023-03-16T07:33:29;77464.88;;;-144.65;100.00
5146;BME280;2591;48.144;15.152;2023-03-16T07:35:59;77471.00;;;-144.65;100.00
5146;BME280;2591;48.144;15.152;2023-03-16T07:38:30;77456.72;;;-144.65;100.00
5146;BME280;2591;48.144;15.152;2023-03-16T07:40:59;77460.78;;;-144.65;100.00
5146;BME280;2591;48.144;15.152;2023-03-16T07:43:26;77473.03;;;-144.65;100.00
5146;BME280;2591;48.144;15.152;2023-03-16T07:45:54;77456.72;;;-144.65;100.00
5146;BME280;2591;48.144;15.152;2023-03-16T07:48:22;77434.28;;;-144.65;100.00
5146;BME280;2591;48.144;15.152;2023-03-16T07:50:50;77430.19;;;-144.65;100.00
5146;BME280;2591;48.144;15.152;2023-03-16T07:53:19;77432.25;;;-144.65;100.00
5146;BME280;2591;48.144;15.152;2023-03-16T07:55:48;77415.91;;;-144.65;100.00
5146;BME280;2591;48.144;15.152;2023-03-16T07:58:15;77399.59;;;-144.65;100.00
5146;BME280;2591;48.144;15.152;2023-03-16T08:00:43;77366.97;;;-144.65;99.66
5146;BME280;2591;48.144;15.152;2023-03-16T08:03:11;77366.97;;;-144.65;95.15
5146;BME280;2591;48.144;15.152;2023-03-16T08:05:39;77366.97;;;-144.65;93.47
5146;BME280;2591;48.144;15.152;2023-03-16T08:08:07;77350.66;;;-144.65;91.40
5146;BME280;2591;48.144;15.152;2023-03-16T08:10:37;77340.47;;;-144.65;88.07
5146;BME280;2591;48.144;15.152;2023-03-16T08:13:04;77334.34;;;-144.65;86.61
5146;BME280;2591;48.144;15.152;2023-03-16T08:15:32;77330.25;;;-144.65;83.18
5146;BME280;2591;48.144;15.152;2023-03-16T08:18:00;77318.03;;;-144.65;80.77
5146;BME280;2591;48.144;15.152;2023-03-16T08:20:29;77348.63;;;-144.65;77.61
5146;BME280;2591;48.144;15.152;2023-03-16T08:22:58;77366.97;;;-144.65;77.04
5146;BME280;2591;48.144;15.152;2023-03-16T08:25:26;77354.72;;;-144.65;78.33
5146;BME280;2591;48.144;15.152;2023-03-16T08:27:55;77346.56;;;-144.65;78.21
5146;BME280;2591;48.144;15.152;2023-03-16T08:30:23;77307.81;;;-144.65;77.84
5146;BME280;2591;48.144;15.152;2023-03-16T08:32:52;77285.38;;;-144.65;76.30
5146;BME280;2591;48.144;15.152;2023-03-16T08:35:20;77258.88;;;-144.65;74.77
5146;BME280;2591;48.144;15.152;2023-03-16T08:37:48;77236.44;;;-144.65;73.59
5146;BME280;2591;48.144;15.152;2023-03-16T08:40:16;77216.03;;;-144.65;72.24
5146;BME280;2591;48.144;15.152;2023-03-16T08:42:45;77189.53;;;-144.65;70.79
5146;BME280;2591;48.144;15.152;2023-03-16T08:45:17;77167.09;;;-144.65;68.18
5146;BME280;2591;48.144;15.152;2023-03-16T08:47:45;77167.09;;;-144.65;67.69
5146;BME280;2591;48.144;15.152;2023-03-16T08:50:13;77158.94;;;-144.65;68.86
5146;BME280;2591;48.144;15.152;2023-03-16T08:52:41;77146.72;;;-144.65;69.47
5146;BME280;2591;48.144;15.152;2023-03-16T08:55:09;77140.59;;;-144.65;70.18
5146;BME280;2591;48.144;15.152;2023-03-16T08:57:38;77118.16;;;-144.65;70.76
5146;BME280;2591;48.144;15.152;2023-03-16T09:00:07;77089.59;;;-144.65;69.28
5146;BME280;2591;48.144;15.152;2023-03-16T09:02:41;77093.69;;;-144.65;67.68
5146;BME280;2591;48.144;15.152;2023-03-16T09:05:10;77081.44;;;-144.65;67.67
5146;BME280;2591;48.144;15.152;2023-03-16T09:07:38;77048.81;;;-144.65;66.00
5146;BME280;2591;48.144;15.152;2023-03-16T09:10:07;77044.75;;;-144.65;66.47
5146;BME280;2591;48.144;15.152;2023-03-16T09:12:37;77085.53;;;-144.65;67.77
5146;BME280;2591;48.144;15.152;2023-03-16T09:15:07;77118.16;;;-144.65;66.66
5146;BME280;2591;48.144;15.152;2023-03-16T09:17:35;77114.06;;;-144.65;66.22
5146;BME280;2591;48.144;15.152;2023-03-16T09:20:06;77093.69;;;-144.65;64.02
5146;BME280;2591;48.144;15.152;2023-03-16T09:22:48;77077.38;;;-144.65;65.04
5146;BME280;2591;48.144;15.152;2023-03-16T09:25:15;77026.38;;;-144.65;64.59
5146;BME280;2591;48.144;15.152;2023-03-16T09:27:44;76983.56;;;-144.65;65.17
5146;BME280;2591;48.144;15.152;2023-03-16T09:30:12;76934.63;;;-144.65;60.54
5146;BME280;2591;48.144;15.152;2023-03-16T09:32:42;76910.16;;;-144.65;59.56
5146;BME280;2591;48.144;15.152;2023-03-16T09:35:11;76936.66;;;-144.65;59.87
5146;BME280;2591;48.144;15.152;2023-03-16T09:37:40;76942.78;;;-144.65;58.90
5146;BME280;2591;48.144;15.152;2023-03-16T09:40:22;76934.63;;;-144.65;59.34
5146;BME280;2591;48.144;15.152;2023-03-16T09:45:48;76820.41;;;-144.65;58.39
5146;BME280;2591;48.144;15.152;2023-03-16T09:48:19;76791.88;;;-144.65;56.68
5146;BME280;2591;48.144;15.152;2023-03-16T09:50:52;76797.97;;;-144.65;56.71
5146;BME280;2591;48.144;15.152;2023-03-16T09:53:24;76765.34;;;-144.65;54.89
5146;BME280;2591;48.144;15.152;2023-03-16T09:55:58;76777.59;;;-144.65;53.51
5146;BME280;2591;48.144;15.152;2023-03-16T09:58:27;76773.50;;;-144.65;54.72
5146;BME280;2591;48.144;15.152;2023-03-16T10:01:03;76759.25;;;-144.65;53.53
5146;BME280;2591;48.144;15.152;2023-03-16T10:03:53;76785.75;;;-144.65;50.77
5146;BME280;2591;48.144;15.152;2023-03-16T10:06:27;76818.38;;;-144.65;51.65
5146;BME280;2591;48.144;15.152;2023-03-16T10:09:04;76771.47;;;-144.65;47.37
5146;BME280;2591;48.144;15.152;2023-03-16T10:11:36;76734.78;;;-144.65;45.66
5146;BME280;2591;48.144;15.152;2023-03-16T10:14:11;76714.38;;;-144.65;46.51
5146;BME280;2591;48.144;15.152;2023-03-16T10:16:47;76665.44;;;-144.65;45.41
5146;BME280;2591;48.144;15.152;2023-03-16T10:19:20;76655.25;;;-144.65;44.75
5146;BME280;2591;48.144;15.152;2023-03-16T10:21:53;76655.25;;;-144.65;45.70
5146;BME280;2591;48.144;15.152;2023-03-16T10:24:33;76665.44;;;-144.65;48.07
5146;BME280;2591;48.144;15.152;2023-03-16T10:27:05;76600.19;;;-144.65;45.23
5146;BME280;2591;48.144;15.152;2023-03-16T10:29:38;76645.03;;;-144.65;47.70
5146;BME280;2591;48.144;15.152;2023-03-16T10:32:12;76612.41;;;-144.65;47.71
5146;BME280;2591;48.144;15.152;2023-03-16T10:34:46;76612.41;;;-144.65;47.79
5146;BME280;2591;48.144;15.152;2023-03-16T10:37:17;76594.06;;;-144.65;48.05
5146;BME280;2591;48.144;15.152;2023-03-16T10:39:47;76530.84;;;-144.65;46.97
5146;BME280;2591;48.144;15.152;2023-03-16T10:42:17;76526.78;;;-144.65;46.50
5146;BME280;2591;48.144;15.152;2023-03-16T10:44:47;76543.09;;;-144.65;46.46
5146;BME280;2591;48.144;15.152;2023-03-16T10:47:17;76592.03;;;-144.65;44.25
5146;BME280;2591;48.144;15.152;2023-03-16T10:49:45;76645.03;;;-144.65;45.30
5146;BME280;2591;48.144;15.152;2023-03-16T10:52:21;76649.13;;;-144.65;45.04
5146;BME280;2591;48.144;15.152;2023-03-16T10:54:53;76681.75;;;-144.65;46.50
5146;BME280;2591;48.144;15.152;2023-03-16T10:57:23;76587.94;;;-144.65;42.65
5146;BME280;2591;48.144;15.152;2023-03-16T10:59:52;76520.66;;;-144.65;42.72
5146;BME280;2591;48.144;15.152;2023-03-16T11:02:29;76571.63;;;-144.65;44.31
5146;BME280;2591;48.144;15.152;2023-03-16T11:04:57;76504.34;;;-144.65;43.46
5146;BME280;2591;48.144;15.152;2023-03-16T11:07:27;76500.28;;;-144.65;43.65
5146;BME280;2591;48.144;15.152;2023-03-16T11:09:55;76469.69;;;-144.65;42.73
5146;BME280;2591;48.144;15.152;2023-03-16T11:12:26;76432.97;;;-144.65;41.28
5146;BME280;2591;48.144;15.152;2023-03-16T11:15:00;76453.38;;;-144.65;41.76
5146;BME280;2591;48.144;15.152;2023-03-16T11:17:35;76486.00;;;-144.65;42.15
5146;BME280;2591;48.144;15.152;2023-03-16T11:20:09;76469.69;;;-144.65;39.89
5146;BME280;2591;48.144;15.152;2023-03-16T11:22:45;76486.00;;;-144.65;41.96
5146;BME280;2591;48.144;15.152;2023-03-16T11:25:18;76477.84;;;-144.65;39.88
5146;BME280;2591;48.144;15.152;2023-03-16T11:27:51;76547.16;;;-144.65;40.28
5146;BME280;2591;48.144;15.152;2023-03-16T11:30:24;76555.31;;;-144.65;41.26
5146;BME280;2591;48.144;15.152;2023-03-16T11:32:54;76512.50;;;-144.65;40.26
5146;BME280;2591;48.144;15.152;2023-03-16T11:35:27;76469.69;;;-144.65;40.09
5146;BME280;2591;48.144;15.152;2023-03-16T11:38:07;76394.25;;;-144.65;36.78
5146;BME280;2591;48.144;15.152;2023-03-16T11:40:45;76420.75;;;-144.65;38.40
5146;BME280;2591;48.144;15.152;2023-03-16T11:43:24;76392.22;;;-144.65;38.91
5146;BME280;2591;48.144;15.152;2023-03-16T11:46:08;76384.06;;;-144.65;39.34
5146;BME280;2591;48.144;15.152;2023-03-16T11:48:39;76324.91;;;-144.65;38.98
5146;BME280;2591;48.144;15.152;2023-03-16T11:51:14;76212.78;;;-144.65;35.56
5146;BME280;2591;48.144;15.152;2023-03-16T11:53:54;76206.66;;;-144.65;36.04
5146;BME280;2591;48.144;15.152;2023-03-16T11:56:32;76214.81;;;-144.65;36.50
5146;BME280;2591;48.144;15.152;2023-03-16T11:59:16;76192.41;;;-144.65;35.82
5146;BME280;2591;48.144;15.152;2023-03-16T12:02:00;76206.66;;;-144.65;34.83
5146;BME280;2591;48.144;15.152;2023-03-16T12:04:42;76229.09;;;-144.65;34.74
5146;BME280;2591;48.144;15.152;2023-03-16T12:07:22;76269.88;;;-144.65;36.90
5146;BME280;2591;48.144;15.152;2023-03-16T12:10:02;76349.38;;;-144.65;38.70
5146;BME280;2591;48.144;15.152;2023-03-16T12:12:44;76353.47;;;-144.65;38.58
5146;BME280;2591;48.144;15.152;2023-03-16T12:15:23;76322.88;;;-144.65;38.19
5146;BME280;2591;48.144;15.152;2023-03-16T12:17:56;76278.03;;;-144.65;38.00
5146;BME280;2591;48.144;15.152;2023-03-16T12:20:29;76245.41;;;-144.65;37.30
5146;BME280;2591;48.144;15.152;2023-03-16T12:23:04;76212.78;;;-144.65;35.47
5146;BME280;2591;48.144;15.152;2023-03-16T12:25:38;76212.78;;;-144.65;35.88
5146;BME280;2591;48.144;15.152;2023-03-16T12:28:14;76208.69;;;-144.65;36.23
5146;BME280;2591;48.144;15.152;2023-03-16T12:30:49;76216.84;;;-144.65;36.24
5146;BME280;2591;48.144;15.152;2023-03-16T12:33:27;76257.63;;;-144.65;37.34
5146;BME280;2591;48.144;15.152;2023-03-16T12:36:02;76229.09;;;-144.65;36.51
5146;BME280;2591;48.144;15.152;2023-03-16T12:38:39;76239.28;;;-144.65;36.68
5146;BME280;2591;48.144;15.152;2023-03-16T12:41:17;76253.56;;;-144.65;36.31
5146;BME280;2591;48.144;15.152;2023-03-16T12:44:00;76326.97;;;-144.65;38.17
5146;BME280;2591;48.144;15.152;2023-03-16T12:46:40;76359.59;;;-144.65;38.00
5146;BME280;2591;48.144;15.152;2023-03-16T12:49:13;76294.34;;;-144.65;37.10
5146;BME280;2591;48.144;15.152;2023-03-16T12:51:42;76286.19;;;-144.65;37.76
5146;BME280;2591;48.144;15.152;2023-03-16T12:54:18;76306.56;;;-144.65;38.53
5146;BME280;2591;48.144;15.152;2023-03-16T12:56:49;76273.94;;;-144.65;38.73
5146;BME280;2591;48.144;15.152;2023-03-16T12:59:19;76212.78;;;-144.65;37.43
5146;BME280;2591;48.144;15.152;2023-03-16T13:01:50;76208.69;;;-144.65;37.31
5146;BME280;2591;48.144;15.152;2023-03-16T13:04:21;76271.91;;;-144.65;37.29